sensor_id;sensor_type;location;lat;lon;timestamp;temperature;humidity
17859;DHT22;35426;30.698;104.050;2023-03-05T00:01:26;15.00;99.90
17859;DHT22;35426;30.698;104.050;2023-03-05T00:04:06;15.20;99.90
17859;DHT22;35426;30.698;104.050;2023-03-05T00:06:45;15.40;99.90
17859;DHT22;35426;30.698;104.050;2023-03-05T00:09:25;15.50;99.90
17859;DHT22;35426;30.698;104.050;2023-03-05T00:12:02;15.50;99.90
17859;DHT22;35426;30.698;104.050;2023-03-05T00:14:41;15.60;99.90
17859;DHT22;35426;30.698;104.050;2023-03-05T00:17:17;15.80;99.90
17859;DHT22;35426;30.698;104.050;2023-03-05T00:20:11;16.10;99.90
17859;DHT22;35426;30.698;104.050;2023-03-05T00:22:58;16.30;99.90
17859;DHT22;35426;30.698;104.050;2023-03-05T00:25:39;16.50;99.90
17859;DHT22;35426;30.698;104.050;2023-03-05T00:28:23;16.40;99.90
17859;DHT22;35426;30.698;104.050;2023-03-05T00:31:01;16.30;99.90
17859;DHT22;35426;30.698;104.050;2023-03-05T00:33:37;16.40;99.90
17859;DHT22;35426;30.698;104.050;2023-03-05T00:36:14;16.50;99.90
17859;DHT22;35426;30.698;104.050;2023-03-05T00:38:54;16.50;99.90
17859;DHT22;35426;30.698;104.050;2023-03-05T00:41:32;16.60;99.90
17859;DHT22;35426;30.698;104.050;2023-03-05T00:44:12;16.50;99.90
17859;DHT22;35426;30.698;104.050;2023-03-05T00:46:48;16.30;99.90
17859;DHT22;35426;30.698;104.050;2023-03-05T00:49:25;16.40;99.90
17859;DHT22;35426;30.698;104.050;2023-03-05T00:52:05;16.50;99.90
17859;DHT22;35426;30.698;104.050;2023-03-05T00:54:45;16.50;99.90
17859;DHT22;35426;30.698;104.050;2023-03-05T00:57:24;16.70;99.90
17859;DHT22;35426;30.698;104.050;2023-03-05T01:00:01;16.70;99.90
17859;DHT22;35426;30.698;104.050;2023-03-05T01:02:44;16.90;99.90
17859;DHT22;35426;30.698;104.050;2023-03-05T01:05:22;17.00;99.90
17859;DHT22;35426;30.698;104.050;2023-03-05T01:07:58;17.30;99.90
17859;DHT22;35426;30.698;104.050;2023-03-05T01:10:40;17.50;99.90
17859;DHT22;35426;30.698;104.050;2023-03-05T01:13:32;17.80;99.90
17859;DHT22;35426;30.698;104.050;2023-03-05T01:16:12;17.60;99.90
17859;DHT22;35426;30.698;104.050;2023-03-05T01:18:48;18.00;99.90
17859;DHT22;35426;30.698;104.050;2023-03-05T01:21:25;18.10;99.90
17859;DHT22;35426;30.698;104.050;2023-03-05T01:24:03;18.40;99.90
17859;DHT22;35426;30.698;104.050;2023-03-05T01:26:43;18.90;99.90
17859;DHT22;35426;30.698;104.050;2023-03-05T01:29:25;19.10;99.90
17859;DHT22;35426;30.698;104.050;2023-03-05T01:32:05;19.60;99.90
17859;DHT22;35426;30.698;104.050;2023-03-05T01:34:43;19.80;99.90
17859;DHT22;35426;30.698;104.050;2023-03-05T01:37:21;20.10;99.90
17859;DHT22;35426;30.698;104.050;2023-03-05T01:40:03;20.50;99.90
17859;DHT22;35426;30.698;104.050;2023-03-05T01:42:54;20.80;99.90
17859;DHT22;35426;30.698;104.050;2023-03-05T01:45:38;20.60;99.90
17859;DHT22;35426;30.698;104.050;2023-03-05T01:48:19;20.70;99.90
17859;DHT22;35426;30.698;104.050;2023-03-05T01:50:56;20.90;99.90
17859;DHT22;35426;30.698;104.050;2023-03-05T01:53:36;21.10;99.90
17859;DHT22;35426;30.698;104.050;2023-03-05T01:56:14;21.40;99.90
17859;DHT22;35426;30.698;104.050;2023-03-05T01:59:02;21.60;99.90
17859;DHT22;35426;30.698;104.050;2023-03-05T02:01:43;21.60;99.90
17859;DHT22;35426;30.698;104.050;2023-03-05T02:04:26;21.60;99.90
17859;DHT22;35426;30.698;104.050;2023-03-05T02:07:12;21.50;99.90
17859;DHT22;35426;30.698;104.050;2023-03-05T02:09:50;21.80;99.90
17859;DHT22;35426;30.698;104.050;2023-03-05T02:12:27;22.00;99.90
17859;DHT22;35426;30.698;104.050;2023-03-05T02:15:09;22.00;99.90
17859;DHT22;35426;30.698;104.050;2023-03-05T02:17:52;22.00;99.90
17859;DHT22;35426;30.698;104.050;2023-03-05T02:20:41;22.00;99.90
17859;DHT22;35426;30.698;104.050;2023-03-05T02:23:22;22.00;99.90
17859;DHT22;35426;30.698;104.050;2023-03-05T02:26:02;22.10;99.90
17859;DHT22;35426;30.698;104.050;2023-03-05T02:28:43;22.50;99.90
17859;DHT22;35426;30.698;104.050;2023-03-05T02:31:27;21.90;99.90
17859;DHT22;35426;30.698;104.050;2023-03-05T02:34:05;22.90;99.90
17859;DHT22;35426;30.698;104.050;2023-03-05T02:36:43;23.60;99.90
17859;DHT22;35426;30.698;104.050;2023-03-05T02:39:25;23.60;99.90
17859;DHT22;35426;30.698;104.050;2023-03-05T02:42:03;23.90;99.90
17859;DHT22;35426;30.698;104.050;2023-03-05T02:44:41;23.80;99.90
17859;DHT22;35426;30.698;104.050;2023-03-05T02:47:18;23.90;99.90
17859;DHT22;35426;30.698;104.050;2023-03-05T02:50:27;24.00;99.90
17859;DHT22;35426;30.698;104.050;2023-03-05T02:53:09;23.80;99.90
17859;DHT22;35426;30.698;104.050;2023-03-05T02:55:58;24.00;99.90
17859;DHT22;35426;30.698;104.050;2023-03-05T02:58:48;24.30;99.90
17859;DHT22;35426;30.698;104.050;2023-03-05T03:01:25;24.30;99.90
17859;DHT22;35426;30.698;104.050;2023-03-05T03:04:10;24.50;99.90
17859;DHT22;35426;30.698;104.050;2023-03-05T03:06:48;24.60;99.90
17859;DHT22;35426;30.698;104.050;2023-03-05T03:09:26;24.60;99.90
17859;DHT22;35426;30.698;104.050;2023-03-05T03:12:11;24.10;99.90
17859;DHT22;35426;30.698;104.050;2023-03-05T03:14:52;23.70;99.90
17859;DHT22;35426;30.698;104.050;2023-03-05T03:17:30;23.90;99.90
17859;DHT22;35426;30.698;104.050;2023-03-05T03:20:39;24.20;99.90
17859;DHT22;35426;30.698;104.050;2023-03-05T03:23:36;24.40;99.90
17859;DHT22;35426;30.698;104.050;2023-03-05T03:26:29;24.50;99.90
17859;DHT22;35426;30.698;104.050;2023-03-05T03:29:13;24.60;99.90
17859;DHT22;35426;30.698;104.050;2023-03-05T03:31:58;24.90;99.90
17859;DHT22;35426;30.698;104.050;2023-03-05T03:34:46;25.00;99.90
17859;DHT22;35426;30.698;104.050;2023-03-05T03:37:37;24.30;99.90
17859;DHT22;35426;30.698;104.050;2023-03-05T03:40:20;24.40;99.90
17859;DHT22;35426;30.698;104.050;2023-03-05T03:42:58;24.40;99.90
17859;DHT22;35426;30.698;104.050;2023-03-05T03:45:43;23.90;99.90
17859;DHT22;35426;30.698;104.050;2023-03-05T03:48:19;24.40;99.90
17859;DHT22;35426;30.698;104.050;2023-03-05T03:50:59;24.50;99.90
17859;DHT22;35426;30.698;104.050;2023-03-05T03:53:43;24.60;99.90
17859;DHT22;35426;30.698;104.050;2023-03-05T03:56:22;24.30;99.90
17859;DHT22;35426;30.698;104.050;2023-03-05T03:59:02;24.60;99.90
17859;DHT22;35426;30.698;104.050;2023-03-05T04:01:49;24.70;99.90
17859;DHT22;35426;30.698;104.050;2023-03-05T04:04:30;24.70;99.90
17859;DHT22;35426;30.698;104.050;2023-03-05T04:07:15;24.50;99.90
17859;DHT22;35426;30.698;104.050;2023-03-05T04:09:54;24.30;99.90
17859;DHT22;35426;30.698;104.050;2023-03-05T04:12:33;24.20;99.90
17859;DHT22;35426;30.698;104.050;2023-03-05T04:15:16;24.40;99.90
17859;DHT22;35426;30.698;104.050;2023-03-05T04:17:56;24.70;99.90
17859;DHT22;35426;30.698;104.050;2023-03-05T04:20:39;24.40;99.90
17859;DHT22;35426;30.698;104.050;2023-03-05T04:23:18;24.20;99.90
17859;DHT22;35426;30.698;104.050;2023-03-05T04:25:59;24.10;99.90
17859;DHT22;35426;30.698;104.050;2023-03-05T04:28:36;24.00;99.90
17859;DHT22;35426;30.698;104.050;2023-03-05T04:31:18;23.50;99.90
17859;DHT22;35426;30.698;104.050;2023-03-05T04:34:02;23.70;99.90
17859;DHT22;35426;30.698;104.050;2023-03-05T04:36:40;23.50;99.90
17859;DHT22;35426;30.698;104.050;2023-03-05T04:39:20;23.40;99.90
17859;DHT22;35426;30.698;104.050;2023-03-05T04:41:59;23.50;99.90
17859;DHT22;35426;30.698;104.050;2023-03-05T04:44:38;23.50;99.90
17859;DHT22;35426;30.698;104.050;2023-03-05T04:47:27;23.40;99.90
17859;DHT22;35426;30.698;104.050;2023-03-05T04:50:12;23.30;99.90
17859;DHT22;35426;30.698;104.050;2023-03-05T04:52:54;23.30;99.90
17859;DHT22;35426;30.698;104.050;2023-03-05T04:55:32;23.20;99.90
17859;DHT22;35426;30.698;104.050;2023-03-05T04:58:13;23.10;99.90
17859;DHT22;35426;30.698;104.050;2023-03-05T05:00:59;23.20;99.90
17859;DHT22;35426;30.698;104.050;2023-03-05T05:03:44;22.90;99.90
17859;DHT22;35426;30.698;104.050;2023-03-05T05:06:34;22.90;99.90
17859;DHT22;35426;30.698;104.050;2023-03-05T05:09:19;23.00;99.90
17859;DHT22;35426;30.698;104.050;2023-03-05T05:11:56;23.10;99.90
17859;DHT22;35426;30.698;104.050;2023-03-05T05:14:35;22.90;99.90
17859;DHT22;35426;30.698;104.050;2023-03-05T05:17:17;23.20;99.90
17859;DHT22;35426;30.698;104.050;2023-03-05T05:19:55;23.20;99.90
17859;DHT22;35426;30.698;104.050;2023-03-05T05:22:47;22.90;99.90
17859;DHT22;35426;30.698;104.050;2023-03-05T05:25:26;22.60;99.90
17859;DHT22;35426;30.698;104.050;2023-03-05T05:28:04;22.90;99.90
17859;DHT22;35426;30.698;104.050;2023-03-05T05:30:45;23.00;99.90
17859;DHT22;35426;30.698;104.050;2023-03-05T05:33:28;23.10;99.90
17859;DHT22;35426;30.698;104.050;2023-03-05T05:36:16;22.90;99.90
17859;DHT22;35426;30.698;104.050;2023-03-05T05:39:01;22.80;99.90
17859;DHT22;35426;30.698;104.050;2023-03-05T05:41:44;22.80;99.90
17859;DHT22;35426;30.698;104.050;2023-03-05T05:44:21;22.80;99.90
17859;DHT22;35426;30.698;104.050;2023-03-05T05:47:01;22.90;99.90
17859;DHT22;35426;30.698;104.050;2023-03-05T05:49:46;22.90;99.90
17859;DHT22;35426;30.698;104.050;2023-03-05T05:52:25;22.90;99.90
17859;DHT22;35426;30.698;104.050;2023-03-05T05:55:08;22.90;99.90
17859;DHT22;35426;30.698;104.050;2023-03-05T05:57:49;22.60;99.90
17859;DHT22;35426;30.698;104.050;2023-03-05T06:00:29;22.40;99.90
17859;DHT22;35426;30.698;104.050;2023-03-05T06:03:09;22.00;99.90
17859;DHT22;35426;30.698;104.050;2023-03-05T06:05:49;22.30;99.90
17859;DHT22;35426;30.698;104.050;2023-03-05T06:08:26;22.40;99.90
17859;DHT22;35426;30.698;104.050;2023-03-05T06:11:15;22.60;99.90
17859;DHT22;35426;30.698;104.050;2023-03-05T06:13:59;22.60;99.90
17859;DHT22;35426;30.698;104.050;2023-03-05T06:16:45;22.60;99.90
17859;DHT22;35426;30.698;104.050;2023-03-05T06:19:34;22.40;99.90
17859;DHT22;35426;30.698;104.050;2023-03-05T06:22:13;22.50;99.90
17859;DHT22;35426;30.698;104.050;2023-03-05T06:24:53;22.30;99.90
17859;DHT22;35426;30.698;104.050;2023-03-05T06:27:37;22.40;99.90
17859;DHT22;35426;30.698;104.050;2023-03-05T06:30:21;22.30;99.90
17859;DHT22;35426;30.698;104.050;2023-03-05T06:32:58;22.40;99.90
17859;DHT22;35426;30.698;104.050;2023-03-05T06:35:36;22.20;99.90
17859;DHT22;35426;30.698;104.050;2023-03-05T06:38:15;21.80;99.90
17859;DHT22;35426;30.698;104.050;2023-03-05T06:40:52;22.10;99.90
17859;DHT22;35426;30.698;104.050;2023-03-05T06:43:41;22.40;99.90
17859;DHT22;35426;30.698;104.050;2023-03-05T06:46:25;22.60;99.90
17859;DHT22;35426;30.698;104.050;2023-03-05T06:49:04;22.60;99.90
17859;DHT22;35426;30.698;104.050;2023-03-05T06:51:42;22.70;99.90
17859;DHT22;35426;30.698;104.050;2023-03-05T06:54:21;22.80;99.90
17859;DHT22;35426;30.698;104.050;2023-03-05T06:56:59;22.50;99.90
17859;DHT22;35426;30.698;104.050;2023-03-05T06:59:42;22.50;99.90
17859;DHT22;35426;30.698;104.050;2023-03-05T07:02:20;22.40;99.90
17859;DHT22;35426;30.698;104.050;2023-03-05T07:05:01;22.50;99.90
17859;DHT22;35426;30.698;104.050;2023-03-05T07:07:41;22.60;99.90
17859;DHT22;35426;30.698;104.050;2023-03-05T07:10:19;22.70;99.90
17859;DHT22;35426;30.698;104.050;2023-03-05T07:12:58;22.90;99.90
17859;DHT22;35426;30.698;104.050;2023-03-05T07:15:40;22.60;99.90
17859;DHT22;35426;30.698;104.050;2023-03-05T07:18:21;22.50;99.90
17859;DHT22;35426;30.698;104.050;2023-03-05T07:21:09;22.50;99.90
17859;DHT22;35426;30.698;104.050;2023-03-05T07:23:57;22.60;99.90
17859;DHT22;35426;30.698;104.050;2023-03-05T07:26:37;22.70;99.90
17859;DHT22;35426;30.698;104.050;2023-03-05T07:29:15;22.60;99.90
17859;DHT22;35426;30.698;104.050;2023-03-05T07:31:55;22.70;99.90
17859;DHT22;35426;30.698;104.050;2023-03-05T07:34:37;22.80;99.90
17859;DHT22;35426;30.698;104.050;2023-03-05T07:37:15;22.80;99.90
17859;DHT22;35426;30.698;104.050;2023-03-05T07:39:51;22.70;99.90
17859;DHT22;35426;30.698;104.050;2023-03-05T07:42:36;22.60;99.90
17859;DHT22;35426;30.698;104.050;2023-03-05T07:45:23;22.60;99.90
17859;DHT22;35426;30.698;104.050;2023-03-05T07:48:03;22.60;99.90
17859;DHT22;35426;30.698;104.050;2023-03-05T07:50:41;22.70;99.90
17859;DHT22;35426;30.698;104.050;2023-03-05T07:53:20;22.80;99.90
17859;DHT22;35426;30.698;104.050;2023-03-05T07:55:59;22.70;99.90
17859;DHT22;35426;30.698;104.050;2023-03-05T07:58:46;22.90;99.90
17859;DHT22;35426;30.698;104.050;2023-03-05T08:01:26;22.90;99.90
17859;DHT22;35426;30.698;104.050;2023-03-05T08:04:08;23.10;99.90
17859;DHT22;35426;30.698;104.050;2023-03-05T08:06:59;22.90;99.90
17859;DHT22;35426;30.698;104.050;2023-03-05T08:09:38;23.00;99.90
17859;DHT22;35426;30.698;104.050;2023-03-05T08:12:16;22.90;99.90
17859;DHT22;35426;30.698;104.050;2023-03-05T08:15:00;23.10;99.90
17859;DHT22;35426;30.698;104.050;2023-03-05T08:17:41;23.00;99.90
17859;DHT22;35426;30.698;104.050;2023-03-05T08:20:35;22.70;99.90
17859;DHT22;35426;30.698;104.050;2023-03-05T08:23:12;22.50;99.90
17859;DHT22;35426;30.698;104.050;2023-03-05T08:25:51;22.50;99.90
17859;DHT22;35426;30.698;104.050;2023-03-05T08:28:31;22.20;99.90
17859;DHT22;35426;30.698;104.050;2023-03-05T08:31:14;22.30;99.90
17859;DHT22;35426;30.698;104.050;2023-03-05T08:33:54;22.30;99.90
17859;DHT22;35426;30.698;104.050;2023-03-05T08:36:37;22.40;99.90
17859;DHT22;35426;30.698;104.050;2023-03-05T08:39:16;22.10;99.90
17859;DHT22;35426;30.698;104.050;2023-03-05T08:41:53;22.10;99.90
17859;DHT22;35426;30.698;104.050;2023-03-05T08:44:30;22.30;99.90
17859;DHT22;35426;30.698;104.050;2023-03-05T08:47:08;22.60;99.90
17859;DHT22;35426;30.698;104.050;2023-03-05T08:49:45;22.80;99.90
17859;DHT22;35426;30.698;104.050;2023-03-05T08:52:28;22.90;99.90
17859;DHT22;35426;30.698;104.050;2023-03-05T08:55:07;22.70;99.90
17859;DHT22;35426;30.698;104.050;2023-03-05T08:57:45;22.70;99.90
17859;DHT22;35426;30.698;104.050;2023-03-05T09:00:27;22.80;99.90
17859;DHT22;35426;30.698;104.050;2023-03-05T09:03:04;22.80;99.90
17859;DHT22;35426;30.698;104.050;2023-03-05T09:05:43;22.90;99.90
17859;DHT22;35426;30.698;104.050;2023-03-05T09:08:24;22.90;99.90
17859;DHT22;35426;30.698;104.050;2023-03-05T09:11:05;22.90;99.90
17859;DHT22;35426;30.698;104.050;2023-03-05T09:13:42;22.70;99.90
17859;DHT22;35426;30.698;104.050;2023-03-05T09:16:19;22.70;99.90
17859;DHT22;35426;30.698;104.050;2023-03-05T09:19:03;22.50;99.90
17859;DHT22;35426;30.698;104.050;2023-03-05T09:21:46;22.30;99.90
17859;DHT22;35426;30.698;104.050;2023-03-05T09:24:34;22.10;99.90
17859;DHT22;35426;30.698;104.050;2023-03-05T09:27:13;22.30;99.90
17859;DHT22;35426;30.698;104.050;2023-03-05T09:29:50;22.40;99.90
17859;DHT22;35426;30.698;104.050;2023-03-05T09:32:29;22.40;99.90
17859;DHT22;35426;30.698;104.050;2023-03-05T09:35:17;22.20;99.90
17859;DHT22;35426;30.698;104.050;2023-03-05T09:37:57;22.20;99.90
17859;DHT22;35426;30.698;104.050;2023-03-05T09:40:44;22.10;99.90
17859;DHT22;35426;30.698;104.050;2023-03-05T09:43:30;21.70;99.90
17859;DHT22;35426;30.698;104.050;2023-03-05T09:46:21;21.50;99.90
17859;DHT22;35426;30.698;104.050;2023-03-05T09:49:14;21.70;99.90
17859;DHT22;35426;30.698;104.050;2023-03-05T09:51:59;21.70;99.90
17859;DHT22;35426;30.698;104.050;2023-03-05T09:54:54;21.70;99.90
17859;DHT22;35426;30.698;104.050;2023-03-05T09:57:41;21.70;99.90
17859;DHT22;35426;30.698;104.050;2023-03-05T10:00:25;21.70;99.90
17859;DHT22;35426;30.698;104.050;2023-03-05T10:03:11;21.60;99.90
17859;DHT22;35426;30.698;104.050;2023-03-05T10:06:09;21.50;99.90
17859;DHT22;35426;30.698;104.050;2023-03-05T10:08:54;21.30;99.90
17859;DHT22;35426;30.698;104.050;2023-03-05T10:11:49;21.30;99.90
17859;DHT22;35426;30.698;104.050;2023-03-05T10:14:32;21.20;99.90
17859;DHT22;35426;30.698;104.050;2023-03-05T10:17:38;21.20;99.90
17859;DHT22;35426;30.698;104.050;2023-03-05T10:20:50;21.20;99.90
17859;DHT22;35426;30.698;104.050;2023-03-05T10:23:49;21.00;99.90
17859;DHT22;35426;30.698;104.050;2023-03-05T10:26:41;21.10;99.90
17859;DHT22;35426;30.698;104.050;2023-03-05T10:30:05;21.10;99.90
17859;DHT22;35426;30.698;104.050;2023-03-05T10:32:54;21.10;99.90
17859;DHT22;35426;30.698;104.050;2023-03-05T10:35:54;21.10;99.90
17859;DHT22;35426;30.698;104.050;2023-03-05T10:39:13;21.00;99.90
17859;DHT22;35426;30.698;104.050;2023-03-05T10:42:14;20.90;99.90
17859;DHT22;35426;30.698;104.050;2023-03-05T10:44:56;20.90;99.90
17859;DHT22;35426;30.698;104.050;2023-03-05T10:47:43;20.90;99.90
17859;DHT22;35426;30.698;104.050;2023-03-05T10:50:40;20.80;99.90
17859;DHT22;35426;30.698;104.050;2023-03-05T10:53:25;20.40;99.90
17859;DHT22;35426;30.698;104.050;2023-03-05T10:56:08;20.40;99.90
17859;DHT22;35426;30.698;104.050;2023-03-05T10:58:46;20.40;99.90
17859;DHT22;35426;30.698;104.050;2023-03-05T11:01:25;20.20;99.90
17859;DHT22;35426;30.698;104.050;2023-03-05T11:04:24;20.10;99.90
17859;DHT22;35426;30.698;104.050;2023-03-05T11:07:07;20.10;99.90
17859;DHT22;35426;30.698;104.050;2023-03-05T11:10:16;20.00;99.90
17859;DHT22;35426;30.698;104.050;2023-03-05T11:12:56;19.90;99.90
17859;DHT22;35426;30.698;104.050;2023-03-05T11:15:40;20.00;99.90
17859;DHT22;35426;30.698;104.050;2023-03-05T11:18:21;19.90;99.90
17859;DHT22;35426;30.698;104.050;2023-03-05T11:21:16;19.90;99.90
17859;DHT22;35426;30.698;104.050;2023-03-05T11:24:14;19.80;99.90
17859;DHT22;35426;30.698;104.050;2023-03-05T11:26:58;19.70;99.90
17859;DHT22;35426;30.698;104.050;2023-03-05T11:29:50;19.70;99.90
17859;DHT22;35426;30.698;104.050;2023-03-05T11:32:30;19.60;99.90
17859;DHT22;35426;30.698;104.050;2023-03-05T11:35:31;19.50;99.90
17859;DHT22;35426;30.698;104.050;2023-03-05T11:38:22;19.50;99.90
17859;DHT22;35426;30.698;104.050;2023-03-05T11:41:00;19.50;99.90
17859;DHT22;35426;30.698;104.050;2023-03-05T11:43:40;19.50;99.90
17859;DHT22;35426;30.698;104.050;2023-03-05T11:46:20;19.50;99.90
17859;DHT22;35426;30.698;104.050;2023-03-05T11:48:59;19.50;99.90
17859;DHT22;35426;30.698;104.050;2023-03-05T11:51:42;19.50;99.90
17859;DHT22;35426;30.698;104.050;2023-03-05T11:54:32;19.50;99.90
17859;DHT22;35426;30.698;104.050;2023-03-05T11:57:15;19.40;99.90
17859;DHT22;35426;30.698;104.050;2023-03-05T11:59:59;19.50;99.90
17859;DHT22;35426;30.698;104.050;2023-03-05T12:02:44;19.50;99.90
17859;DHT22;35426;30.698;104.050;2023-03-05T12:05:23;19.50;99.90
17859;DHT22;35426;30.698;104.050;2023-03-05T12:08:09;19.40;99.90
17859;DHT22;35426;30.698;104.050;2023-03-05T12:11:17;19.40;99.90
17859;DHT22;35426;30.698;104.050;2023-03-05T12:14:26;19.40;99.90
17859;DHT22;35426;30.698;104.050;2023-03-05T12:17:15;19.30;99.90
17859;DHT22;35426;30.698;104.050;2023-03-05T12:20:16;19.20;99.90
17859;DHT22;35426;30.698;104.050;2023-03-05T12:22:58;19.20;99.90
17859;DHT22;35426;30.698;104.050;2023-03-05T12:25:46;19.20;99.90
17859;DHT22;35426;30.698;104.050;2023-03-05T12:28:57;19.10;99.90
17859;DHT22;35426;30.698;104.050;2023-03-05T12:31:44;19.20;99.90
17859;DHT22;35426;30.698;104.050;2023-03-05T12:34:48;19.10;99.90
17859;DHT22;35426;30.698;104.050;2023-03-05T12:38:12;19.10;99.90
17859;DHT22;35426;30.698;104.050;2023-03-05T12:44:32;19.00;99.90
17859;DHT22;35426;30.698;104.050;2023-03-05T12:47:17;19.00;99.90
17859;DHT22;35426;30.698;104.050;2023-03-05T12:49:59;18.90;99.90
17859;DHT22;35426;30.698;104.050;2023-03-05T12:52:48;18.90;99.90
17859;DHT22;35426;30.698;104.050;2023-03-05T12:55:28;19.00;99.90
17859;DHT22;35426;30.698;104.050;2023-03-05T12:58:24;19.00;99.90
17859;DHT22;35426;30.698;104.050;2023-03-05T13:01:28;19.00;99.90
17859;DHT22;35426;30.698;104.050;2023-03-05T13:04:21;19.10;99.90
17859;DHT22;35426;30.698;104.050;2023-03-05T13:07:32;19.10;99.90
17859;DHT22;35426;30.698;104.050;2023-03-05T13:10:28;19.00;99.90
17859;DHT22;35426;30.698;104.050;2023-03-05T13:13:10;19.00;99.90
17859;DHT22;35426;30.698;104.050;2023-03-05T13:15:53;18.90;99.90
17859;DHT22;35426;30.698;104.050;2023-03-05T13:18:44;18.80;99.90
17859;DHT22;35426;30.698;104.050;2023-03-05T13:21:34;19.00;99.90
17859;DHT22;35426;30.698;104.050;2023-03-05T13:24:18;19.10;99.90
17859;DHT22;35426;30.698;104.050;2023-03-05T13:26:56;19.00;99.90
17859;DHT22;35426;30.698;104.050;2023-03-05T13:29:44;19.00;99.90
17859;DHT22;35426;30.698;104.050;2023-03-05T13:32:28;19.10;99.90
17859;DHT22;35426;30.698;104.050;2023-03-05T13:35:20;19.10;99.90
17859;DHT22;35426;30.698;104.050;2023-03-05T13:38:25;19.10;99.90
17859;DHT22;35426;30.698;104.050;2023-03-05T13:41:20;19.10;99.90
17859;DHT22;35426;30.698;104.050;2023-03-05T13:44:02;19.10;99.90
17859;DHT22;35426;30.698;104.050;2023-03-05T13:46:45;19.00;99.90
17859;DHT22;35426;30.698;104.050;2023-03-05T13:49:33;19.00;99.90
17859;DHT22;35426;30.698;104.050;2023-03-05T13:52:29;19.00;99.90
17859;DHT22;35426;30.698;104.050;2023-03-05T13:55:19;19.00;99.90
17859;DHT22;35426;30.698;104.050;2023-03-05T13:57:58;19.00;99.90
17859;DHT22;35426;30.698;104.050;2023-03-05T14:00:39;19.00;99.90
17859;DHT22;35426;30.698;104.050;2023-03-05T14:03:23;19.00;99.90
17859;DHT22;35426;30.698;104.050;2023-03-05T14:06:09;18.90;99.90
17859;DHT22;35426;30.698;104.050;2023-03-05T14:09:00;18.90;99.90
17859;DHT22;35426;30.698;104.050;2023-03-05T14:11:59;18.80;99.90
17859;DHT22;35426;30.698;104.050;2023-03-05T14:14:44;18.70;99.90
17859;DHT22;35426;30.698;104.050;2023-03-05T14:17:38;18.80;99.90
17859;DHT22;35426;30.698;104.050;2023-03-05T14:20:29;18.90;99.90
17859;DHT22;35426;30.698;104.050;2023-03-05T14:23:25;18.80;99.90
17859;DHT22;35426;30.698;104.050;2023-03-05T14:26:25;18.70;99.90
17859;DHT22;35426;30.698;104.050;2023-03-05T14:29:22;18.80;99.90
17859;DHT22;35426;30.698;104.050;2023-03-05T14:32:06;18.70;99.90
17859;DHT22;35426;30.698;104.050;2023-03-05T14:34:50;18.70;99.90
17859;DHT22;35426;30.698;104.050;2023-03-05T14:37:36;18.50;99.90
17859;DHT22;35426;30.698;104.050;2023-03-05T14:40:27;18.60;99.90
17859;DHT22;35426;30.698;104.050;2023-03-05T14:43:08;18.50;99.90
17859;DHT22;35426;30.698;104.050;2023-03-05T14:45:55;18.60;99.90
17859;DHT22;35426;30.698;104.050;2023-03-05T14:48:42;18.60;99.90
17859;DHT22;35426;30.698;104.050;2023-03-05T14:51:21;18.50;99.90
17859;DHT22;35426;30.698;104.050;2023-03-05T14:54:17;18.40;99.90
17859;DHT22;35426;30.698;104.050;2023-03-05T14:56:58;18.10;99.90
17859;DHT22;35426;30.698;104.050;2023-03-05T14:59:40;18.20;99.90
17859;DHT22;35426;30.698;104.050;2023-03-05T15:02:24;18.30;99.90
17859;DHT22;35426;30.698;104.050;2023-03-05T15:05:03;18.40;99.90
17859;DHT22;35426;30.698;104.050;2023-03-05T15:07:51;18.30;99.90
17859;DHT22;35426;30.698;104.050;2023-03-05T15:10:36;18.20;99.90
17859;DHT22;35426;30.698;104.050;2023-03-05T15:13:16;18.30;99.90
17859;DHT22;35426;30.698;104.050;2023-03-05T15:16:00;18.30;99.90
17859;DHT22;35426;30.698;104.050;2023-03-05T15:18:42;18.40;99.90
17859;DHT22;35426;30.698;104.050;2023-03-05T15:21:29;18.30;99.90
17859;DHT22;35426;30.698;104.050;2023-03-05T15:24:16;18.20;99.90
17859;DHT22;35426;30.698;104.050;2023-03-05T15:26:56;18.10;99.90
17859;DHT22;35426;30.698;104.050;2023-03-05T15:29:46;18.10;99.90
17859;DHT22;35426;30.698;104.050;2023-03-05T15:32:31;18.10;99.90
17859;DHT22;35426;30.698;104.050;2023-03-05T15:35:12;18.00;99.90
17859;DHT22;35426;30.698;104.050;2023-03-05T15:37:52;18.10;99.90
17859;DHT22;35426;30.698;104.050;2023-03-05T15:40:34;18.30;99.90
17859;DHT22;35426;30.698;104.050;2023-03-05T15:43:15;18.30;99.90
17859;DHT22;35426;30.698;104.050;2023-03-05T15:46:05;18.30;99.90
17859;DHT22;35426;30.698;104.050;2023-03-05T15:48:47;18.30;99.90
17859;DHT22;35426;30.698;104.050;2023-03-05T15:51:31;18.40;99.90
17859;DHT22;35426;30.698;104.050;2023-03-05T15:54:10;18.40;99.90
17859;DHT22;35426;30.698;104.050;2023-03-05T15:56:49;18.40;99.90
17859;DHT22;35426;30.698;104.050;2023-03-05T15:59:30;18.40;99.90
17859;DHT22;35426;30.698;104.050;2023-03-05T16:02:09;18.50;99.90
17859;DHT22;35426;30.698;104.050;2023-03-05T16:04:56;18.50;99.90
17859;DHT22;35426;30.698;104.050;2023-03-05T16:07:38;18.60;99.90
17859;DHT22;35426;30.698;104.050;2023-03-05T16:10:24;18.60;99.90
17859;DHT22;35426;30.698;104.050;2023-03-05T16:13:10;18.70;99.90
17859;DHT22;35426;30.698;104.050;2023-03-05T16:15:52;18.60;99.90
17859;DHT22;35426;30.698;104.050;2023-03-05T16:18:36;18.60;99.90
17859;DHT22;35426;30.698;104.050;2023-03-05T16:21:21;18.70;99.90
17859;DHT22;35426;30.698;104.050;2023-03-05T16:24:10;18.70;99.90
17859;DHT22;35426;30.698;104.050;2023-03-05T16:26:50;18.50;99.90
17859;DHT22;35426;30.698;104.050;2023-03-05T16:29:27;18.60;99.90
17859;DHT22;35426;30.698;104.050;2023-03-05T16:32:06;18.60;99.90
17859;DHT22;35426;30.698;104.050;2023-03-05T16:34:43;18.50;99.90
17859;DHT22;35426;30.698;104.050;2023-03-05T16:37:27;18.60;99.90
17859;DHT22;35426;30.698;104.050;2023-03-05T16:40:09;18.60;99.90
17859;DHT22;35426;30.698;104.050;2023-03-05T16:42:46;18.50;99.90
17859;DHT22;35426;30.698;104.050;2023-03-05T16:45:25;18.60;99.90
17859;DHT22;35426;30.698;104.050;2023-03-05T16:48:03;18.70;99.90
17859;DHT22;35426;30.698;104.050;2023-03-05T16:50:43;18.60;99.90